Saint Ignatius, MT (59865)

5:03 AM MDT on September 05, 2015 (GMT -0600)
Saint Ignatius | | Change Station
CLOSE
Current Station
Personal Weather Station
Location: Saint Ignatius, MT
Elevation: 2818 ft
Nearby Weather Stations

Elev 2818 ft 47.32 °N, 114.14 °W | Updated 2 minutes ago

Overcast
Overcast
54.3 °F
Feels Like 54.3 °F
N
5.0
Wind Variable Wind from SW
Gusts 14.0 mph

Today
High -- | Low -- °F
--% Chance of Precip.
Yesterday
High -- | Low -- °F
Precip. -- in
7:00 AM 8:08 PM
Waning Gibbous, 49% visible
Pressure 29.85 in
Visibility 7.0 miles
Clouds Mostly Cloudy 3400 ft
Overcast 4900 ft
Dew Point 46 °F
Humidity 72%
Rainfall 0.00 in
Snow Depth Not available.
UV 0 out of 12
Pollen 4.50 out of 12
Air Quality Not available.
Flu Activity Not available.
METAR KMSO 051053Z AUTO 11014KT 7SM RA BKN034 OVC049 11/08 A2986 RMK AO2 RAB07 SLP106 P0003 T01060078
Pressure 29.85 in
Visibility 7.0 miles
Clouds Mostly Cloudy 3400 ft
Overcast 4900 ft
Dew Point 46 °F
Humidity 72%
Rainfall 0.00 in
Snow Depth Not available.
UV 0 out of 12
Pollen 4.50 out of 12
Air Quality Not available.
Flu Activity Not available.
METAR KMSO 051053Z AUTO 11014KT 7SM RA BKN034 OVC049 11/08 A2986 RMK AO2 RAB07 SLP106 P0003 T01060078

10-Day Weather Forecast

×

Almanac

Astronomy

Sep. 05, 2015 Rise Set
Actual Time
Civil Twilight
Nautical Twilight
Astronomical Twilight
Moon
Length of Visible Light
Length of Day
Tomorrow will be .
, % of the Moon is Illuminated

Today's Extremes

State Highs State Lows

Community

WunderPhotos

Upload Photos

1,852,445 photos uploaded!

WunderBlogs® & News

Nearby

Air Quality

  Air Quality AQ Index Pollutant
Not available.

Snow Depth

Station Depth Elevation

Earthquake Activity

City Distance Mag. Time & Date
Minimum magnitude displayed is 2.5.

Coastal Water Temperatures

Place Temperature

Stations

Nearby Weather Stations

Station Location Temp. Windchill Dew Point Humidity Wind Precip. Elev Updated Type